createdAt,value
2017-05-09T00:00:05.948Z,0.50
2017-05-09T00:02:32.710Z,0.50
2017-05-09T00:04:59.375Z,0.52
2017-05-09T00:07:26.063Z,0.30
2017-05-09T00:09:52.758Z,0.30
2017-05-09T00:12:19.437Z,0.40
2017-05-09T00:14:46.100Z,0.54
2017-05-09T00:17:12.995Z,0.30
2017-05-09T00:19:39.658Z,0.40
2017-05-09T00:22:06.322Z,0.30
2017-05-09T00:24:33.013Z,0.30
2017-05-09T00:26:59.678Z,0.40
2017-05-09T00:29:26.342Z,0.30
2017-05-09T00:31:53.051Z,0.30
2017-05-09T00:34:19.715Z,0.30
2017-05-09T00:36:46.380Z,0.38
2017-05-09T00:39:13.103Z,0.20
2017-05-09T00:41:39.771Z,0.40
2017-05-09T00:44:06.444Z,0.30
2017-05-09T00:46:33.141Z,0.40
2017-05-09T00:48:59.825Z,0.30
2017-05-09T00:51:26.490Z,0.30
2017-05-09T00:53:53.269Z,0.30
2017-05-09T00:56:19.939Z,0.30
2017-05-09T00:58:46.608Z,0.30
2017-05-09T01:01:13.296Z,0.20
2017-05-09T01:03:39.965Z,0.30
2017-05-09T01:06:06.633Z,0.30
2017-05-09T01:08:33.313Z,0.20
2017-05-09T01:10:59.980Z,0.30
2017-05-09T01:13:26.651Z,0.20
2017-05-09T01:15:53.344Z,0.30
2017-05-09T01:18:20.018Z,0.40
2017-05-09T01:20:46.678Z,0.28
2017-05-09T01:23:13.364Z,0.20
2017-05-09T01:25:40.028Z,0.24
2017-05-09T01:28:06.696Z,0.28
2017-05-09T01:30:33.405Z,0.30
2017-05-09T01:33:00.068Z,0.30
2017-05-09T01:35:26.732Z,0.20
2017-05-09T01:37:53.430Z,0.30
2017-05-09T01:40:20.094Z,0.20
2017-05-09T01:42:46.774Z,0.30
2017-05-09T01:45:13.470Z,0.34
2017-05-09T01:47:40.160Z,0.30
2017-05-09T01:50:06.820Z,0.30
2017-05-09T01:52:33.566Z,0.20
2017-05-09T01:55:00.237Z,0.22
2017-05-09T01:57:26.919Z,0.30
2017-05-09T01:59:53.601Z,0.40
2017-05-09T02:02:20.307Z,0.40
2017-05-09T02:04:47.010Z,0.40
2017-05-09T02:07:13.873Z,0.30
2017-05-09T02:09:40.533Z,0.30
2017-05-09T02:12:07.201Z,0.40
2017-05-09T02:14:33.929Z,0.40
2017-05-09T02:17:00.593Z,0.30
2017-05-09T02:19:27.265Z,0.40
2017-05-09T02:21:53.940Z,0.30
2017-05-09T02:24:20.610Z,0.30
2017-05-09T02:26:47.279Z,0.40
2017-05-09T02:29:14.069Z,0.30
2017-05-09T02:31:40.763Z,0.40
2017-05-09T02:34:07.425Z,0.30
2017-05-09T02:36:34.174Z,0.30
2017-05-09T02:39:00.845Z,0.30
2017-05-09T02:41:27.513Z,0.30
2017-05-09T02:43:54.234Z,0.30
2017-05-09T02:46:20.901Z,0.40
2017-05-09T02:48:47.569Z,0.40
2017-05-09T02:51:14.454Z,0.30
2017-05-09T02:53:41.126Z,0.30
2017-05-09T02:56:07.800Z,0.30
2017-05-09T02:58:34.493Z,0.50
2017-05-09T03:01:01.167Z,0.32
2017-05-09T03:03:27.839Z,0.32
2017-05-09T03:05:54.537Z,0.30
2017-05-09T03:08:21.212Z,0.40
2017-05-09T03:10:47.889Z,0.46
2017-05-09T03:13:14.810Z,0.40
2017-05-09T03:15:41.474Z,0.38
2017-05-09T03:18:08.137Z,0.30
2017-05-09T03:20:34.852Z,0.30
2017-05-09T03:23:01.520Z,0.40
2017-05-09T03:25:28.222Z,0.30
2017-05-09T03:27:55.131Z,0.30
2017-05-09T03:30:21.810Z,0.32
2017-05-09T03:32:48.474Z,0.42
2017-05-09T03:35:15.164Z,0.36
2017-05-09T03:37:41.827Z,0.30
2017-05-09T03:40:08.498Z,0.32
2017-05-09T03:42:35.195Z,0.40
2017-05-09T03:45:01.862Z,0.60
2017-05-09T03:47:28.528Z,0.30
2017-05-09T03:49:55.257Z,0.68
2017-05-09T03:52:21.923Z,0.50
2017-05-09T03:54:48.594Z,0.40
2017-05-09T03:57:15.289Z,0.40
2017-05-09T03:59:41.975Z,0.36
2017-05-09T04:02:08.642Z,0.70
2017-05-09T04:04:35.324Z,0.30
2017-05-09T04:07:01.989Z,0.50
2017-05-09T04:09:28.655Z,0.38
2017-05-09T04:11:55.357Z,0.40
2017-05-09T04:14:22.035Z,0.30
2017-05-09T04:16:48.705Z,0.30
2017-05-09T04:19:15.410Z,0.30
2017-05-09T04:21:42.076Z,0.30
2017-05-09T04:24:08.761Z,0.44
2017-05-09T04:26:35.463Z,0.32
2017-05-09T04:29:02.968Z,0.30
2017-05-09T04:31:29.637Z,0.40
2017-05-09T04:33:56.330Z,0.30
2017-05-09T04:36:23.002Z,0.30
2017-05-09T04:38:49.665Z,0.30
2017-05-09T04:41:16.377Z,0.20
2017-05-09T04:43:43.050Z,0.30
2017-05-09T04:46:09.733Z,0.58
2017-05-09T04:48:36.428Z,0.40
2017-05-09T04:51:03.109Z,0.46
2017-05-09T04:53:29.774Z,0.50
2017-05-09T04:55:56.468Z,0.30
2017-05-09T04:58:23.138Z,0.30
2017-05-09T05:00:49.803Z,0.36
2017-05-09T05:03:16.494Z,0.30
2017-05-09T05:05:43.623Z,0.30
2017-05-09T05:08:10.294Z,0.40
2017-05-09T05:10:36.993Z,0.68
2017-05-09T05:13:03.668Z,0.30
2017-05-09T05:15:30.349Z,0.40
2017-05-09T05:17:57.017Z,0.46
2017-05-09T05:20:24.121Z,0.30
2017-05-09T05:22:50.990Z,0.30
2017-05-09T05:25:17.804Z,0.36
2017-05-09T05:27:44.876Z,0.40
2017-05-09T05:30:11.751Z,0.40
2017-05-09T05:32:39.571Z,0.40
2017-05-09T05:35:08.194Z,0.30
2017-05-09T05:37:35.193Z,0.34
2017-05-09T05:40:01.990Z,0.30
2017-05-09T05:42:28.922Z,0.30
2017-05-09T05:44:57.427Z,0.34
2017-05-09T05:47:26.082Z,0.50
2017-05-09T05:49:53.402Z,0.32
2017-05-09T05:52:20.362Z,0.40
2017-05-09T05:54:47.741Z,0.30
2017-05-09T05:57:14.823Z,0.30
2017-05-09T05:59:42.856Z,0.40
2017-05-09T06:02:11.764Z,0.46
2017-05-09T06:04:39.290Z,0.32
2017-05-09T06:07:06.355Z,0.34
2017-05-09T06:09:33.359Z,0.50
2017-05-09T06:12:02.248Z,0.36
2017-05-09T06:14:29.311Z,0.36
2017-05-09T06:16:58.771Z,0.40
2017-05-09T06:19:27.622Z,0.40
2017-05-09T06:21:56.009Z,0.30
2017-05-09T06:24:23.494Z,0.30
2017-05-09T06:26:51.641Z,0.50
2017-05-09T06:29:18.998Z,1.42
2017-05-09T06:31:47.091Z,1.80
2017-05-09T06:34:14.026Z,1.06
2017-05-09T06:36:41.061Z,0.50
2017-05-09T06:39:09.643Z,0.40
2017-05-09T06:41:39.282Z,0.50
2017-05-09T06:44:07.732Z,0.50
2017-05-09T06:46:36.114Z,0.60
2017-05-09T06:49:04.878Z,0.36
2017-05-09T06:51:34.466Z,0.50
2017-05-09T06:54:02.579Z,0.58
2017-05-09T06:56:29.829Z,0.42
2017-05-09T06:58:58.283Z,0.50
2017-05-09T07:01:26.792Z,0.40
2017-05-09T07:03:57.485Z,0.40
2017-05-09T07:06:26.191Z,0.40
2017-05-09T07:08:54.590Z,0.38
2017-05-09T07:11:22.047Z,0.30
2017-05-09T07:13:50.937Z,0.30
2017-05-09T07:16:18.876Z,0.30
2017-05-09T07:18:47.346Z,0.50
2017-05-09T07:21:14.674Z,0.56
2017-05-09T07:23:43.325Z,0.38
2017-05-09T07:26:11.733Z,0.54
2017-05-09T07:28:40.798Z,0.38
2017-05-09T07:31:08.491Z,0.38
2017-05-09T07:33:36.634Z,0.40
2017-05-09T07:36:03.749Z,0.32
2017-05-09T07:38:32.475Z,0.40
2017-05-09T07:40:59.566Z,0.30
2017-05-09T07:43:26.508Z,0.46
2017-05-09T07:45:53.330Z,0.30
2017-05-09T07:48:20.376Z,0.46
2017-05-09T07:50:47.301Z,0.40
2017-05-09T07:53:14.157Z,0.30
2017-05-09T07:55:41.234Z,0.30
2017-05-09T07:58:09.056Z,0.40
2017-05-09T08:00:37.887Z,0.42
2017-05-09T08:03:06.119Z,0.30
2017-05-09T08:05:33.065Z,0.40
2017-05-09T08:08:00.013Z,0.30
2017-05-09T08:10:26.959Z,0.40
2017-05-09T08:12:55.204Z,0.38
2017-05-09T08:15:22.354Z,0.30
2017-05-09T08:17:49.290Z,0.30
2017-05-09T08:20:16.171Z,0.40
2017-05-09T08:22:43.187Z,0.40
2017-05-09T08:25:11.094Z,0.40
2017-05-09T08:27:39.051Z,0.40
2017-05-09T08:30:06.024Z,0.40
2017-05-09T08:32:32.764Z,0.30
2017-05-09T08:34:59.431Z,0.68
2017-05-09T08:37:26.102Z,0.42
2017-05-09T08:39:52.785Z,0.56
2017-05-09T08:42:19.453Z,0.30
2017-05-09T08:44:46.112Z,0.20
2017-05-09T08:47:13.749Z,0.48
2017-05-09T08:49:40.417Z,0.30
2017-05-09T08:52:07.093Z,0.40
2017-05-09T08:54:33.772Z,0.30
2017-05-09T08:57:00.436Z,0.40
2017-05-09T08:59:27.902Z,0.30
2017-05-09T09:01:54.999Z,0.30
2017-05-09T09:04:22.115Z,0.30
2017-05-09T09:06:49.213Z,0.30
2017-05-09T09:09:16.945Z,0.30
2017-05-09T09:11:45.607Z,0.30
2017-05-09T09:14:12.693Z,0.32
2017-05-09T09:16:39.658Z,0.40
2017-05-09T09:19:08.069Z,0.42
2017-05-09T09:21:37.088Z,0.40
2017-05-09T09:24:05.569Z,0.30
2017-05-09T09:26:35.457Z,0.30
2017-05-09T09:29:05.120Z,0.40
2017-05-09T09:31:32.073Z,0.30
2017-05-09T09:33:58.741Z,0.40
2017-05-09T09:36:25.405Z,0.40
2017-05-09T09:38:52.110Z,0.30
2017-05-09T09:41:18.774Z,0.38
2017-05-09T09:43:45.446Z,0.30
2017-05-09T09:46:12.132Z,0.30
2017-05-09T09:48:38.803Z,0.40
2017-05-09T09:51:05.467Z,0.46
2017-05-09T09:53:32.161Z,0.34
2017-05-09T09:55:58.827Z,0.30
2017-05-09T09:58:25.488Z,0.36
2017-05-09T10:00:52.180Z,0.50
2017-05-09T10:03:18.845Z,0.40
2017-05-09T10:05:45.518Z,0.40
2017-05-09T10:08:12.301Z,0.30
2017-05-09T10:10:38.967Z,0.30
2017-05-09T10:13:05.639Z,0.30
2017-05-09T10:15:32.336Z,0.36
2017-05-09T10:17:59.004Z,0.70
2017-05-09T10:20:25.666Z,0.72
2017-05-09T10:22:52.346Z,0.74
2017-05-09T10:25:19.017Z,1.04
2017-05-09T10:27:45.690Z,1.30
2017-05-09T10:30:12.369Z,0.72
2017-05-09T10:32:39.038Z,1.10
2017-05-09T10:35:05.712Z,1.12
2017-05-09T10:37:32.422Z,0.70
2017-05-09T10:39:59.097Z,0.70
2017-05-09T10:42:25.764Z,0.68
2017-05-09T10:44:52.474Z,1.24
2017-05-09T10:47:19.148Z,1.30
2017-05-09T10:49:45.805Z,1.04
2017-05-09T10:52:12.493Z,1.10
2017-05-09T10:54:39.161Z,0.86
2017-05-09T10:57:05.831Z,1.32
2017-05-09T10:59:32.520Z,1.22
2017-05-09T11:01:59.185Z,1.20
2017-05-09T11:04:25.857Z,1.30
2017-05-09T11:06:52.553Z,1.20
2017-05-09T11:09:19.221Z,1.02
2017-05-09T11:11:45.888Z,1.00
2017-05-09T11:14:12.591Z,1.66
2017-05-09T11:16:39.273Z,2.57
2017-05-09T11:19:05.952Z,1.32
2017-05-09T11:21:32.633Z,1.10
2017-05-09T11:23:59.298Z,1.40
2017-05-09T11:26:25.970Z,1.42
2017-05-09T11:28:52.656Z,1.26
2017-05-09T11:31:19.345Z,1.12
2017-05-09T11:33:46.015Z,1.42
2017-05-09T11:36:12.713Z,1.52
2017-05-09T11:38:39.486Z,2.04
2017-05-09T11:41:06.327Z,1.34
2017-05-09T11:43:33.025Z,1.26
2017-05-09T11:45:59.692Z,2.42
2017-05-09T11:48:26.357Z,1.94
2017-05-09T11:50:53.057Z,1.60
2017-05-09T11:53:19.724Z,1.90
2017-05-09T11:55:46.391Z,1.28
2017-05-09T11:58:13.134Z,1.76
2017-05-09T12:00:39.824Z,1.56
2017-05-09T12:03:06.488Z,1.88
2017-05-09T12:05:33.382Z,2.08
2017-05-09T12:08:00.052Z,2.10
2017-05-09T12:10:26.716Z,1.66
2017-05-09T12:12:53.410Z,1.72
2017-05-09T12:15:20.068Z,1.76
2017-05-09T12:17:46.728Z,1.90
2017-05-09T12:20:13.415Z,1.76
2017-05-09T12:22:40.181Z,1.68
2017-05-09T12:25:06.840Z,1.44
2017-05-09T12:27:33.545Z,1.94
2017-05-09T12:30:00.294Z,1.80
2017-05-09T12:32:26.965Z,1.44
2017-05-09T12:34:53.656Z,1.64
2017-05-09T12:37:20.330Z,1.84
2017-05-09T12:39:47.004Z,1.72
2017-05-09T12:42:13.740Z,1.76
2017-05-09T12:44:40.424Z,1.76
2017-05-09T12:47:07.089Z,1.44
2017-05-09T12:49:33.788Z,1.50
2017-05-09T12:52:00.454Z,1.80
2017-05-09T12:54:27.114Z,1.70
2017-05-09T12:56:53.793Z,2.02
2017-05-09T12:59:20.452Z,1.76
2017-05-09T13:01:47.121Z,2.00
2017-05-09T13:04:13.819Z,1.54
2017-05-09T13:06:40.489Z,1.76
2017-05-09T13:09:07.175Z,2.36
2017-05-09T13:11:33.913Z,2.08
2017-05-09T13:14:00.587Z,1.72
2017-05-09T13:16:27.252Z,2.00
2017-05-09T13:18:54.918Z,3.08
2017-05-09T13:21:21.587Z,2.40
2017-05-09T13:23:48.261Z,2.40
2017-05-09T13:26:14.956Z,2.04
2017-05-09T13:28:41.644Z,1.90
2017-05-09T13:31:08.314Z,2.06
2017-05-09T13:33:35.001Z,1.96
2017-05-09T13:36:01.683Z,1.70
2017-05-09T13:38:28.348Z,1.80
2017-05-09T13:40:55.032Z,1.80
2017-05-09T13:43:23.588Z,1.78
2017-05-09T13:45:51.438Z,1.62
2017-05-09T13:48:19.482Z,1.80
2017-05-09T13:50:47.329Z,2.06
2017-05-09T13:53:15.180Z,2.06
2017-05-09T13:55:41.967Z,1.82
2017-05-09T13:58:08.646Z,2.02
2017-05-09T14:00:35.310Z,2.44
2017-05-09T14:03:02.012Z,1.68
2017-05-09T14:05:28.683Z,2.30
2017-05-09T14:07:55.399Z,2.22
2017-05-09T14:10:22.095Z,2.50
2017-05-09T14:12:48.862Z,2.20
2017-05-09T14:15:15.551Z,2.20
2017-05-09T14:17:42.230Z,2.20
2017-05-09T14:20:08.896Z,2.10
2017-05-09T14:22:35.559Z,1.86
2017-05-09T14:25:02.258Z,2.34
2017-05-09T14:27:28.937Z,1.78
2017-05-09T14:29:55.601Z,2.28
2017-05-09T14:32:22.282Z,2.30
2017-05-09T14:34:49.039Z,2.10
2017-05-09T14:37:15.706Z,2.42
2017-05-09T14:39:42.386Z,2.48
2017-05-09T14:42:09.073Z,2.20
2017-05-09T14:44:35.741Z,2.36
2017-05-09T14:47:02.479Z,2.06
2017-05-09T14:49:29.189Z,1.68
2017-05-09T14:51:55.939Z,1.92
2017-05-09T14:54:22.697Z,1.98
2017-05-09T14:56:49.362Z,2.12
2017-05-09T14:59:16.049Z,2.38
2017-05-09T15:01:42.728Z,1.90
2017-05-09T15:04:09.393Z,2.34
2017-05-09T15:06:36.065Z,2.48
2017-05-09T15:09:02.742Z,3.10
2017-05-09T15:11:29.573Z,2.42
2017-05-09T15:13:56.282Z,1.86
2017-05-09T15:16:23.196Z,3.20
2017-05-09T15:18:49.873Z,2.14
2017-05-09T15:21:16.540Z,1.94
2017-05-09T15:23:43.237Z,2.20
2017-05-09T15:26:09.899Z,2.60
2017-05-09T15:28:37.556Z,1.50
2017-05-09T15:31:04.249Z,1.34
2017-05-09T15:33:30.922Z,1.74
2017-05-09T15:35:58.635Z,1.96
2017-05-09T15:38:26.426Z,1.70
2017-05-09T15:40:53.979Z,1.94
2017-05-09T15:43:21.707Z,1.86
2017-05-09T15:45:48.669Z,2.32
2017-05-09T15:48:15.352Z,2.30
2017-05-09T15:50:42.932Z,1.90
2017-05-09T15:53:11.021Z,2.22
2017-05-09T15:55:38.615Z,1.96
2017-05-09T15:58:06.685Z,2.60
2017-05-09T16:00:34.494Z,2.82
2017-05-09T16:03:02.144Z,2.52
2017-05-09T16:05:30.384Z,2.62
2017-05-09T16:07:58.093Z,2.68
2017-05-09T16:10:25.583Z,2.74
2017-05-09T16:12:52.389Z,2.36
2017-05-09T16:15:19.058Z,3.12
2017-05-09T16:17:45.735Z,2.86
2017-05-09T16:20:12.439Z,2.58
2017-05-09T16:22:39.106Z,2.26
2017-05-09T16:25:05.790Z,2.37
2017-05-09T16:27:32.501Z,2.97
2017-05-09T16:29:59.157Z,4.20
2017-05-09T16:32:25.827Z,2.74
2017-05-09T16:34:52.540Z,2.82
2017-05-09T16:37:19.205Z,2.82
2017-05-09T16:39:45.871Z,1.80
2017-05-09T16:42:12.578Z,2.42
2017-05-09T16:44:39.240Z,3.20
2017-05-09T16:47:05.932Z,3.16
2017-05-09T16:49:32.616Z,2.32
2017-05-09T16:51:59.310Z,2.44
2017-05-09T16:54:26.008Z,1.94
2017-05-09T16:56:52.680Z,2.16
2017-05-09T16:59:19.350Z,2.14
2017-05-09T17:01:46.052Z,1.70
2017-05-09T17:04:12.716Z,2.18
2017-05-09T17:06:39.408Z,2.66
2017-05-09T17:09:06.081Z,2.28
2017-05-09T17:11:32.790Z,2.30
2017-05-09T17:13:59.456Z,1.98
2017-05-09T17:16:26.120Z,2.16
2017-05-09T17:18:52.895Z,2.08
2017-05-09T17:21:19.577Z,2.12
2017-05-09T17:23:46.238Z,1.90
2017-05-09T17:26:12.920Z,1.92
2017-05-09T17:28:39.622Z,2.10
2017-05-09T17:31:06.277Z,1.90
2017-05-09T17:33:32.968Z,2.00
2017-05-09T17:35:59.636Z,2.14
2017-05-09T17:38:26.343Z,2.74
2017-05-09T17:40:53.224Z,2.40
2017-05-09T17:43:19.921Z,2.80
2017-05-09T17:45:46.758Z,2.48
2017-05-09T17:48:13.513Z,2.90
2017-05-09T17:50:40.221Z,2.52
2017-05-09T17:53:07.062Z,2.90
2017-05-09T17:55:33.901Z,2.75
2017-05-09T17:58:00.607Z,2.38
2017-05-09T18:00:27.547Z,2.87
2017-05-09T18:02:54.250Z,4.18
2017-05-09T18:05:20.930Z,3.10
2017-05-09T18:07:47.630Z,2.62
2017-05-09T18:10:14.341Z,3.18
2017-05-09T18:12:41.045Z,2.82
2017-05-09T18:15:07.762Z,2.52
2017-05-09T18:17:34.510Z,2.63
2017-05-09T18:20:01.304Z,2.80
2017-05-09T18:22:28.006Z,2.42
2017-05-09T18:24:54.710Z,2.92
2017-05-09T18:27:21.398Z,4.25
2017-05-09T18:29:48.139Z,2.87
2017-05-09T18:32:14.894Z,3.78
2017-05-09T18:34:41.615Z,3.33
2017-05-09T18:37:08.324Z,4.30
2017-05-09T18:39:35.342Z,3.52
2017-05-09T18:42:02.065Z,3.83
2017-05-09T18:44:28.755Z,3.52
2017-05-09T18:46:55.465Z,3.27
2017-05-09T18:49:22.153Z,3.55
2017-05-09T18:51:48.885Z,3.80
2017-05-09T18:54:15.727Z,3.40
2017-05-09T18:56:42.724Z,3.62
2017-05-09T18:59:09.473Z,3.27
2017-05-09T19:01:36.165Z,4.92
2017-05-09T19:04:02.892Z,4.10
2017-05-09T19:06:29.900Z,3.33
2017-05-09T19:08:56.798Z,3.50
2017-05-09T19:11:23.554Z,3.63
2017-05-09T19:13:50.378Z,3.73
2017-05-09T19:16:17.106Z,3.90
2017-05-09T19:18:43.862Z,3.42
2017-05-09T19:21:10.591Z,3.52
2017-05-09T19:23:37.430Z,3.45
2017-05-09T19:26:04.170Z,4.35
2017-05-09T19:28:30.906Z,3.82
2017-05-09T19:30:57.648Z,25.95
2017-05-09T19:33:24.540Z,4.82
2017-05-09T19:35:51.283Z,3.63
2017-05-09T19:38:18.051Z,3.98
2017-05-09T19:40:44.741Z,3.48
2017-05-09T19:43:11.453Z,3.88
2017-05-09T19:45:38.195Z,3.90
2017-05-09T19:48:04.936Z,4.02
2017-05-09T19:50:33.117Z,4.35
2017-05-09T19:52:59.944Z,3.92
2017-05-09T19:55:26.689Z,4.13
2017-05-09T19:57:53.486Z,3.97
2017-05-09T20:00:20.212Z,4.55
2017-05-09T20:02:46.922Z,4.33
2017-05-09T20:05:14.236Z,5.30
2017-05-09T20:07:43.134Z,4.32
2017-05-09T20:10:10.026Z,4.68
2017-05-09T20:12:36.757Z,3.90
2017-05-09T20:15:03.497Z,4.90
2017-05-09T20:17:30.223Z,4.60
2017-05-09T20:19:56.968Z,4.43
2017-05-09T20:22:23.791Z,4.42
2017-05-09T20:24:50.545Z,3.62
2017-05-09T20:27:17.285Z,4.10
2017-05-09T20:29:43.977Z,4.40
2017-05-09T20:32:11.589Z,4.45
2017-05-09T20:37:14.937Z,4.80
2017-05-09T20:39:41.656Z,5.18
2017-05-09T20:42:08.407Z,5.50
2017-05-09T20:44:35.713Z,6.30
2017-05-09T20:47:02.655Z,5.70
2017-05-09T20:49:29.375Z,5.07
2017-05-09T20:51:56.245Z,5.17
2017-05-09T20:54:22.934Z,5.43
2017-05-09T20:56:49.687Z,5.67
2017-05-09T20:59:16.374Z,5.05
2017-05-09T21:01:43.085Z,5.48
2017-05-09T21:04:09.954Z,5.68
2017-05-09T21:06:36.768Z,5.05
2017-05-09T21:09:03.685Z,5.08
2017-05-09T21:11:30.393Z,5.03
2017-05-09T21:13:57.175Z,5.22
2017-05-09T21:16:23.977Z,6.32
2017-05-09T21:18:50.719Z,5.33
2017-05-09T21:21:17.456Z,4.95
2017-05-09T21:23:44.188Z,5.38
2017-05-09T21:26:10.976Z,4.78
2017-05-09T21:28:37.957Z,5.32
2017-05-09T21:31:04.675Z,5.55
2017-05-09T21:33:31.491Z,4.90
2017-05-09T21:35:58.202Z,5.50
2017-05-09T21:38:24.938Z,5.32
2017-05-09T21:40:51.680Z,4.60
2017-05-09T21:43:18.416Z,4.83
2017-05-09T21:45:45.152Z,5.95
2017-05-09T21:48:11.987Z,4.70
2017-05-09T21:50:38.709Z,4.23
2017-05-09T21:53:05.397Z,5.12
2017-05-09T21:55:32.114Z,3.87
2017-05-09T21:57:59.135Z,3.90
2017-05-09T22:00:25.907Z,4.80
2017-05-09T22:02:52.700Z,4.18
2017-05-09T22:05:19.511Z,4.00
2017-05-09T22:07:46.252Z,4.18
2017-05-09T22:10:13.242Z,3.98
2017-05-09T22:12:39.959Z,3.42
2017-05-09T22:15:06.665Z,3.58
2017-05-09T22:17:33.411Z,4.13
2017-05-09T22:20:00.130Z,4.07
2017-05-09T22:22:26.841Z,4.18
2017-05-09T22:24:53.540Z,4.02
2017-05-09T22:27:20.293Z,3.85
2017-05-09T22:29:46.989Z,3.77
2017-05-09T22:32:13.681Z,3.82
2017-05-09T22:34:40.380Z,3.63
2017-05-09T22:37:07.140Z,3.30
2017-05-09T22:39:33.847Z,3.78
2017-05-09T22:42:00.841Z,3.23
2017-05-09T22:44:27.556Z,3.80
2017-05-09T22:46:54.269Z,3.78
2017-05-09T22:49:20.985Z,3.42
2017-05-09T22:51:47.852Z,3.45
2017-05-09T22:54:14.558Z,3.25
2017-05-09T22:56:41.256Z,2.98
2017-05-09T22:59:07.962Z,3.18
2017-05-09T23:01:34.661Z,2.73
2017-05-09T23:04:01.348Z,3.03
2017-05-09T23:06:28.076Z,3.38
2017-05-09T23:08:54.769Z,2.85
2017-05-09T23:11:21.469Z,2.92
2017-05-09T23:13:48.441Z,2.78
2017-05-09T23:16:15.155Z,3.17
2017-05-09T23:18:41.842Z,2.72
2017-05-09T23:21:08.534Z,2.95
2017-05-09T23:23:35.426Z,2.88
2017-05-09T23:26:02.121Z,2.92
2017-05-09T23:28:28.899Z,3.53
2017-05-09T23:30:55.957Z,3.30
2017-05-09T23:33:22.649Z,2.80
2017-05-09T23:35:49.346Z,3.30
2017-05-09T23:38:16.055Z,3.00
2017-05-09T23:40:42.744Z,2.95
2017-05-09T23:43:09.431Z,3.02
2017-05-09T23:45:36.138Z,3.02
2017-05-09T23:48:02.835Z,3.08
2017-05-09T23:50:29.530Z,2.93
2017-05-09T23:52:56.226Z,3.10
2017-05-09T23:55:22.923Z,2.68
2017-05-09T23:57:49.732Z,37.65
